AFL1430 UNBG-UNBB
Flight info
| Callsign | AFL1430 |
|---|---|
| Flight time | 0h 30m |
| Altitude | 24000 |
| Route | KUDEB B206 INBOK |
| Aircraft | A320/M-SDE3FGHIRWY/LB1 |
Departure
| Time | 2026-04-19 04:28 |
|---|---|
| Airport | Gorno-Altaysk Airport (UNBG) |
Arrival
| Time | 2026-04-19 04:58 |
|---|---|
| Airport | Barnaul Gherman Titov International Airport (UNBB) |
| Time | Latitude | Longitude | Altitude | Speed | Heading |
|---|---|---|---|---|---|
| 2026-04-19 04:23 | 51.96888 | 85.84020 | 944 ft | 0 kts | 295° |
| 2026-04-19 04:24 | 51.96898 | 85.84000 | 933 ft | 6 kts | 314° |
| 2026-04-19 04:25 | 51.96962 | 85.83973 | 931 ft | 14 kts | 11° |
| 2026-04-19 04:25 | 51.97074 | 85.84054 | 930 ft | 21 kts | 25° |
| 2026-04-19 04:25 | 51.97166 | 85.84096 | 933 ft | 13 kts | 335° |
| 2026-04-19 04:25 | 51.97221 | 85.83942 | 932 ft | 14 kts | 297° |
| 2026-04-19 04:26 | 51.97323 | 85.83962 | 928 ft | 20 kts | 26° |
| 2026-04-19 04:26 | 51.97468 | 85.84073 | 933 ft | 26 kts | 24° |
| 2026-04-19 04:26 | 51.97652 | 85.84215 | 936 ft | 32 kts | 25° |
| 2026-04-19 04:26 | 51.97783 | 85.84350 | 935 ft | 14 kts | 69° |
| 2026-04-19 04:27 | 51.97814 | 85.84360 | 934 ft | 11 kts | 230° |
| 2026-04-19 04:27 | 51.97732 | 85.84274 | 933 ft | 18 kts | 205° |
| 2026-04-19 04:27 | 51.97427 | 85.84040 | 932 ft | 85 kts | 205° |
| 2026-04-19 04:27 | 51.96703 | 85.83486 | 950 ft | 141 kts | 206° |
| 2026-04-19 04:28 | 51.95804 | 85.82786 | 1624 ft | 142 kts | 206° |
| 2026-04-19 04:28 | 51.94922 | 85.82098 | 2416 ft | 141 kts | 206° |
| 2026-04-19 04:28 | 51.93973 | 85.81374 | 2902 ft | 162 kts | 207° |
| 2026-04-19 04:28 | 51.92886 | 85.80551 | 3321 ft | 183 kts | 206° |
| 2026-04-19 04:29 | 51.91667 | 85.79628 | 3854 ft | 200 kts | 207° |
| 2026-04-19 04:29 | 51.90395 | 85.78662 | 4775 ft | 203 kts | 208° |
| 2026-04-19 04:29 | 51.89100 | 85.77680 | 5659 ft | 206 kts | 208° |
| 2026-04-19 04:29 | 51.87794 | 85.76689 | 6586 ft | 208 kts | 209° |
| 2026-04-19 04:30 | 51.86498 | 85.75622 | 7369 ft | 210 kts | 220° |
| 2026-04-19 04:30 | 51.85691 | 85.73739 | 8133 ft | 207 kts | 259° |
| 2026-04-19 04:30 | 51.85844 | 85.71466 | 8909 ft | 209 kts | 296° |
| 2026-04-19 04:30 | 51.86548 | 85.69401 | 9833 ft | 210 kts | 296° |
| 2026-04-19 04:31 | 51.87186 | 85.67244 | 10687 ft | 210 kts | 294° |
| 2026-04-19 04:31 | 51.87905 | 85.65222 | 11450 ft | 213 kts | 309° |
| 2026-04-19 04:31 | 51.89079 | 85.63658 | 12079 ft | 229 kts | 329° |
| 2026-04-19 04:31 | 51.90685 | 85.62792 | 12424 ft | 256 kts | 340° |
| 2026-04-19 04:32 | 51.92486 | 85.62014 | 12713 ft | 280 kts | 341° |
| 2026-04-19 04:32 | 51.94445 | 85.61173 | 12971 ft | 304 kts | 341° |
| 2026-04-19 04:32 | 51.96550 | 85.60271 | 13418 ft | 318 kts | 341° |
| 2026-04-19 04:32 | 51.98702 | 85.59355 | 14159 ft | 322 kts | 341° |
| 2026-04-19 04:33 | 52.00875 | 85.58425 | 14890 ft | 324 kts | 341° |
| 2026-04-19 04:33 | 52.03060 | 85.57481 | 15658 ft | 326 kts | 341° |
| 2026-04-19 04:33 | 52.05256 | 85.56527 | 16406 ft | 328 kts | 341° |
| 2026-04-19 04:33 | 52.07466 | 85.55566 | 17147 ft | 330 kts | 341° |
| 2026-04-19 04:34 | 52.09689 | 85.54602 | 17892 ft | 331 kts | 341° |
| 2026-04-19 04:34 | 52.11923 | 85.53627 | 18613 ft | 333 kts | 341° |
| 2026-04-19 04:34 | 52.14170 | 85.52640 | 19226 ft | 336 kts | 341° |
| 2026-04-19 04:34 | 52.16431 | 85.51644 | 19836 ft | 338 kts | 340° |
| 2026-04-19 04:35 | 52.18704 | 85.50642 | 20456 ft | 339 kts | 341° |
| 2026-04-19 04:35 | 52.20991 | 85.49639 | 21045 ft | 341 kts | 341° |
| 2026-04-19 04:35 | 52.23294 | 85.48632 | 21630 ft | 344 kts | 341° |
| 2026-04-19 04:35 | 52.25612 | 85.47618 | 22219 ft | 346 kts | 341° |
| 2026-04-19 04:36 | 52.27941 | 85.46594 | 22804 ft | 348 kts | 341° |
| 2026-04-19 04:36 | 52.30315 | 85.45548 | 23370 ft | 350 kts | 340° |
| 2026-04-19 04:36 | 52.32640 | 85.44518 | 23890 ft | 352 kts | 341° |
| 2026-04-19 04:36 | 52.35011 | 85.43465 | 24185 ft | 353 kts | 340° |
| 2026-04-19 04:37 | 52.37419 | 85.42391 | 24248 ft | 358 kts | 341° |
| 2026-04-19 04:37 | 52.39872 | 85.41293 | 24257 ft | 372 kts | 341° |
| 2026-04-19 04:37 | 52.42408 | 85.40158 | 24251 ft | 385 kts | 341° |
| 2026-04-19 04:37 | 52.45028 | 85.38937 | 24254 ft | 395 kts | 337° |
| 2026-04-19 04:38 | 52.47521 | 85.37014 | 24252 ft | 401 kts | 327° |
| 2026-04-19 04:38 | 52.49779 | 85.34268 | 24246 ft | 408 kts | 320° |
| 2026-04-19 04:38 | 52.52000 | 85.31323 | 24246 ft | 412 kts | 320° |
| 2026-04-19 04:38 | 52.54225 | 85.28351 | 24250 ft | 413 kts | 320° |
| 2026-04-19 04:39 | 52.56448 | 85.25380 | 24240 ft | 408 kts | 320° |
| 2026-04-19 04:39 | 52.58584 | 85.22528 | 24238 ft | 383 kts | 320° |
| 2026-04-19 04:39 | 52.60594 | 85.19848 | 24235 ft | 361 kts | 320° |
| 2026-04-19 04:39 | 52.62495 | 85.17311 | 24241 ft | 345 kts | 320° |
| 2026-04-19 04:40 | 52.64345 | 85.14835 | 24234 ft | 341 kts | 320° |
| 2026-04-19 04:40 | 52.66181 | 85.12373 | 24236 ft | 340 kts | 320° |
| 2026-04-19 04:40 | 52.68014 | 85.09917 | 24234 ft | 340 kts | 320° |
| 2026-04-19 04:40 | 52.69848 | 85.07461 | 24240 ft | 339 kts | 320° |
| 2026-04-19 04:41 | 52.71669 | 85.05019 | 24089 ft | 333 kts | 320° |
| 2026-04-19 04:41 | 52.73442 | 85.02637 | 23766 ft | 325 kts | 320° |
| 2026-04-19 04:41 | 52.75172 | 85.00306 | 23339 ft | 317 kts | 320° |
| 2026-04-19 04:41 | 52.76879 | 84.98001 | 22959 ft | 310 kts | 320° |
| 2026-04-19 04:42 | 52.78533 | 84.95766 | 22572 ft | 303 kts | 320° |
| 2026-04-19 04:42 | 52.80149 | 84.93583 | 22212 ft | 297 kts | 320° |
| 2026-04-19 04:42 | 52.81783 | 84.91376 | 21845 ft | 311 kts | 320° |
| 2026-04-19 04:42 | 52.83474 | 84.89090 | 21466 ft | 315 kts | 320° |
| 2026-04-19 04:43 | 52.85170 | 84.86799 | 21076 ft | 315 kts | 320° |
| 2026-04-19 04:43 | 52.86858 | 84.84517 | 20688 ft | 314 kts | 320° |
| 2026-04-19 04:43 | 52.88542 | 84.82233 | 20277 ft | 312 kts | 320° |
| 2026-04-19 04:43 | 52.90216 | 84.79956 | 19882 ft | 311 kts | 320° |
| 2026-04-19 04:44 | 52.91880 | 84.77688 | 19476 ft | 309 kts | 320° |
| 2026-04-19 04:44 | 52.93536 | 84.75429 | 19077 ft | 308 kts | 320° |
| 2026-04-19 04:44 | 52.95186 | 84.73180 | 18670 ft | 306 kts | 320° |
| 2026-04-19 04:44 | 52.96830 | 84.70942 | 18223 ft | 305 kts | 320° |
| 2026-04-19 04:45 | 52.98465 | 84.68710 | 17802 ft | 304 kts | 320° |
| 2026-04-19 04:45 | 53.00094 | 84.66480 | 17397 ft | 303 kts | 320° |
| 2026-04-19 04:45 | 53.01718 | 84.64251 | 16985 ft | 302 kts | 319° |
| 2026-04-19 04:45 | 53.03338 | 84.62030 | 16586 ft | 301 kts | 319° |
| 2026-04-19 04:46 | 53.04953 | 84.59815 | 16189 ft | 301 kts | 319° |
| 2026-04-19 04:46 | 53.06566 | 84.57604 | 15786 ft | 300 kts | 319° |
| 2026-04-19 04:46 | 53.08174 | 84.55396 | 15398 ft | 299 kts | 319° |
| 2026-04-19 04:46 | 53.09778 | 84.53191 | 14995 ft | 299 kts | 319° |
| 2026-04-19 04:47 | 53.11396 | 84.50967 | 14590 ft | 298 kts | 319° |
| 2026-04-19 04:47 | 53.12996 | 84.48761 | 14192 ft | 298 kts | 319° |
| 2026-04-19 04:47 | 53.14590 | 84.46560 | 13757 ft | 297 kts | 319° |
| 2026-04-19 04:47 | 53.16178 | 84.44365 | 13334 ft | 297 kts | 319° |
| 2026-04-19 04:48 | 53.17767 | 84.42170 | 12921 ft | 296 kts | 319° |
| 2026-04-19 04:48 | 53.19343 | 84.39988 | 12503 ft | 295 kts | 319° |
| 2026-04-19 04:48 | 53.20919 | 84.37802 | 12094 ft | 294 kts | 319° |
| 2026-04-19 04:48 | 53.22488 | 84.35621 | 11673 ft | 293 kts | 319° |
| 2026-04-19 04:49 | 53.24053 | 84.33446 | 11254 ft | 292 kts | 319° |
| 2026-04-19 04:49 | 53.25614 | 84.31277 | 10830 ft | 292 kts | 319° |
| 2026-04-19 04:49 | 53.26608 | 84.29777 | 10588 ft | 288 kts | 312° |
| 2026-04-19 04:49 | 53.27768 | 84.27144 | 10462 ft | 276 kts | 299° |
| 2026-04-19 04:50 | 53.28491 | 84.24235 | 10323 ft | 267 kts | 287° |
| 2026-04-19 04:50 | 53.28951 | 84.21276 | 10148 ft | 259 kts | 286° |
| 2026-04-19 04:50 | 53.29398 | 84.18393 | 9989 ft | 255 kts | 286° |
| 2026-04-19 04:50 | 53.29853 | 84.15475 | 9635 ft | 258 kts | 286° |
| 2026-04-19 04:51 | 53.30308 | 84.12558 | 9222 ft | 258 kts | 285° |
| 2026-04-19 04:51 | 53.30758 | 84.09660 | 8680 ft | 257 kts | 285° |
| 2026-04-19 04:51 | 53.31205 | 84.06779 | 7995 ft | 255 kts | 285° |
| 2026-04-19 04:51 | 53.31649 | 84.03914 | 7336 ft | 253 kts | 285° |
| 2026-04-19 04:52 | 53.32086 | 84.01080 | 6754 ft | 251 kts | 284° |
| 2026-04-19 04:52 | 53.32519 | 83.98255 | 6137 ft | 249 kts | 284° |
| 2026-04-19 04:52 | 53.32947 | 83.95458 | 5565 ft | 247 kts | 284° |
| 2026-04-19 04:52 | 53.33378 | 83.92678 | 5014 ft | 246 kts | 285° |
| 2026-04-19 04:53 | 53.34070 | 83.90164 | 4769 ft | 231 kts | 303° |
| 2026-04-19 04:53 | 53.35112 | 83.88249 | 4663 ft | 214 kts | 319° |
| 2026-04-19 04:53 | 53.36373 | 83.86977 | 4591 ft | 215 kts | 334° |
| 2026-04-19 04:53 | 53.37743 | 83.86031 | 4462 ft | 213 kts | 334° |
| 2026-04-19 04:54 | 53.39111 | 83.85085 | 4378 ft | 213 kts | 334° |
| 2026-04-19 04:54 | 53.40480 | 83.84137 | 4268 ft | 212 kts | 334° |
| 2026-04-19 04:54 | 53.41791 | 83.83038 | 4179 ft | 210 kts | 314° |
| 2026-04-19 04:54 | 53.42547 | 83.81092 | 3956 ft | 196 kts | 280° |
| 2026-04-19 04:55 | 53.42499 | 83.78886 | 3541 ft | 193 kts | 249° |
| 2026-04-19 04:55 | 53.41969 | 83.76724 | 2862 ft | 209 kts | 245° |
| 2026-04-19 04:55 | 53.41414 | 83.74504 | 2678 ft | 196 kts | 245° |
| 2026-04-19 04:55 | 53.40909 | 83.72463 | 2708 ft | 186 kts | 245° |
| 2026-04-19 04:56 | 53.40422 | 83.70494 | 2440 ft | 179 kts | 245° |
| 2026-04-19 04:56 | 53.39947 | 83.68573 | 2207 ft | 174 kts | 245° |
| 2026-04-19 04:56 | 53.39494 | 83.66741 | 1979 ft | 166 kts | 244° |
| 2026-04-19 04:56 | 53.39062 | 83.64996 | 1771 ft | 155 kts | 243° |
| 2026-04-19 04:57 | 53.38671 | 83.63412 | 1580 ft | 139 kts | 244° |
| 2026-04-19 04:57 | 53.38311 | 83.61965 | 1432 ft | 132 kts | 244° |
| 2026-04-19 04:57 | 53.37962 | 83.60559 | 1334 ft | 129 kts | 245° |
| 2026-04-19 04:57 | 53.37620 | 83.59184 | 1215 ft | 131 kts | 245° |
| 2026-04-19 04:58 | 53.37268 | 83.57789 | 1079 ft | 129 kts | 248° |
| 2026-04-19 04:58 | 53.36931 | 83.56398 | 920 ft | 128 kts | 247° |
| 2026-04-19 04:58 | 53.36594 | 83.55041 | 831 ft | 118 kts | 247° |
| 2026-04-19 04:58 | 53.36373 | 83.54179 | 835 ft | 37 kts | 248° |
| 2026-04-19 04:59 | 53.36314 | 83.53940 | 834 ft | 16 kts | 245° |
| 2026-04-19 04:59 | 53.36198 | 83.53929 | 830 ft | 18 kts | 157° |
| 2026-04-19 04:59 | 53.36172 | 83.54103 | 835 ft | 22 kts | 69° |
| 2026-04-19 04:59 | 53.36244 | 83.54392 | 833 ft | 32 kts | 68° |
| 2026-04-19 05:00 | 53.36340 | 83.54782 | 837 ft | 40 kts | 68° |
| 2026-04-19 05:00 | 53.36428 | 83.55130 | 834 ft | 34 kts | 67° |
| 2026-04-19 05:00 | 53.36477 | 83.55330 | 838 ft | 10 kts | 69° |
| 2026-04-19 05:00 | 53.36435 | 83.55371 | 838 ft | 8 kts | 194° |
| 2026-04-19 05:01 | 53.36410 | 83.55302 | 838 ft | 0 kts | 246° |